sensor_id;sensor_type;location;lat;lon;timestamp;P1;durP1;ratioP1;P2;durP2;ratioP2
10007;SDS011;5043;41.766;26.204;2023-04-24T00:00:54;6.70;;;4.45;;
10007;SDS011;5043;41.766;26.204;2023-04-24T00:03:23;9.63;;;4.38;;
10007;SDS011;5043;41.766;26.204;2023-04-24T00:05:49;9.60;;;5.45;;
10007;SDS011;5043;41.766;26.204;2023-04-24T00:08:14;6.28;;;4.22;;
10007;SDS011;5043;41.766;26.204;2023-04-24T00:10:40;6.97;;;4.55;;
10007;SDS011;5043;41.766;26.204;2023-04-24T00:13:06;8.73;;;4.72;;
10007;SDS011;5043;41.766;26.204;2023-04-24T00:15:32;12.02;;;4.40;;
10007;SDS011;5043;41.766;26.204;2023-04-24T00:17:58;11.75;;;4.80;;
10007;SDS011;5043;41.766;26.204;2023-04-24T00:20:23;9.05;;;5.00;;
10007;SDS011;5043;41.766;26.204;2023-04-24T00:22:49;11.07;;;5.32;;
10007;SDS011;5043;41.766;26.204;2023-04-24T00:25:14;8.45;;;4.68;;
10007;SDS011;5043;41.766;26.204;2023-04-24T00:27:40;8.00;;;4.82;;
10007;SDS011;5043;41.766;26.204;2023-04-24T00:30:05;10.40;;;5.22;;
10007;SDS011;5043;41.766;26.204;2023-04-24T00:32:31;7.30;;;5.30;;
10007;SDS011;5043;41.766;26.204;2023-04-24T00:34:57;13.18;;;5.90;;
10007;SDS011;5043;41.766;26.204;2023-04-24T00:37:22;13.27;;;5.43;;
10007;SDS011;5043;41.766;26.204;2023-04-24T00:39:47;9.18;;;5.22;;
10007;SDS011;5043;41.766;26.204;2023-04-24T00:42:13;11.40;;;6.75;;
10007;SDS011;5043;41.766;26.204;2023-04-24T00:44:38;11.35;;;6.03;;
10007;SDS011;5043;41.766;26.204;2023-04-24T00:47:04;17.65;;;6.28;;
10007;SDS011;5043;41.766;26.204;2023-04-24T00:49:30;14.95;;;6.72;;
10007;SDS011;5043;41.766;26.204;2023-04-24T00:51:55;13.05;;;6.45;;
10007;SDS011;5043;41.766;26.204;2023-04-24T00:54:22;11.73;;;5.82;;
10007;SDS011;5043;41.766;26.204;2023-04-24T00:56:47;13.70;;;6.55;;
10007;SDS011;5043;41.766;26.204;2023-04-24T00:59:15;10.75;;;5.63;;
10007;SDS011;5043;41.766;26.204;2023-04-24T01:01:43;14.52;;;6.50;;
10007;SDS011;5043;41.766;26.204;2023-04-24T01:04:11;17.58;;;6.13;;
10007;SDS011;5043;41.766;26.204;2023-04-24T01:06:40;17.17;;;6.05;;
10007;SDS011;5043;41.766;26.204;2023-04-24T01:09:06;12.32;;;6.40;;
10007;SDS011;5043;41.766;26.204;2023-04-24T01:11:36;8.52;;;6.15;;
10007;SDS011;5043;41.766;26.204;2023-04-24T01:14:02;10.57;;;5.97;;
10007;SDS011;5043;41.766;26.204;2023-04-24T01:16:29;7.95;;;6.10;;
10007;SDS011;5043;41.766;26.204;2023-04-24T01:18:54;10.32;;;6.63;;
10007;SDS011;5043;41.766;26.204;2023-04-24T01:21:20;15.35;;;6.20;;
10007;SDS011;5043;41.766;26.204;2023-04-24T01:23:47;9.73;;;6.20;;
10007;SDS011;5043;41.766;26.204;2023-04-24T01:26:14;11.70;;;7.15;;
10007;SDS011;5043;41.766;26.204;2023-04-24T01:28:41;9.07;;;6.50;;
10007;SDS011;5043;41.766;26.204;2023-04-24T01:31:06;13.20;;;6.35;;
10007;SDS011;5043;41.766;26.204;2023-04-24T01:33:32;10.98;;;6.07;;
10007;SDS011;5043;41.766;26.204;2023-04-24T01:35:58;7.60;;;5.68;;
10007;SDS011;5043;41.766;26.204;2023-04-24T01:38:25;9.15;;;6.03;;
10007;SDS011;5043;41.766;26.204;2023-04-24T01:40:51;11.25;;;6.13;;
10007;SDS011;5043;41.766;26.204;2023-04-24T01:43:16;15.75;;;6.13;;
10007;SDS011;5043;41.766;26.204;2023-04-24T01:45:43;10.77;;;6.00;;
10007;SDS011;5043;41.766;26.204;2023-04-24T01:48:08;11.82;;;6.22;;
10007;SDS011;5043;41.766;26.204;2023-04-24T01:50:34;9.38;;;5.80;;
10007;SDS011;5043;41.766;26.204;2023-04-24T01:53:00;15.55;;;5.82;;
10007;SDS011;5043;41.766;26.204;2023-04-24T01:55:26;11.82;;;5.13;;
10007;SDS011;5043;41.766;26.204;2023-04-24T01:57:52;9.10;;;5.75;;
10007;SDS011;5043;41.766;26.204;2023-04-24T02:00:20;7.30;;;5.57;;
10007;SDS011;5043;41.766;26.204;2023-04-24T02:02:47;8.88;;;5.93;;
10007;SDS011;5043;41.766;26.204;2023-04-24T02:05:13;11.65;;;6.20;;
10007;SDS011;5043;41.766;26.204;2023-04-24T02:07:39;8.88;;;6.50;;
10007;SDS011;5043;41.766;26.204;2023-04-24T02:10:05;11.32;;;6.07;;
10007;SDS011;5043;41.766;26.204;2023-04-24T02:12:31;10.55;;;6.03;;
10007;SDS011;5043;41.766;26.204;2023-04-24T02:14:56;10.70;;;6.07;;
10007;SDS011;5043;41.766;26.204;2023-04-24T02:17:21;12.90;;;6.65;;
10007;SDS011;5043;41.766;26.204;2023-04-24T02:19:47;13.88;;;5.78;;
10007;SDS011;5043;41.766;26.204;2023-04-24T02:22:13;9.60;;;5.30;;
10007;SDS011;5043;41.766;26.204;2023-04-24T02:24:38;7.45;;;5.88;;
10007;SDS011;5043;41.766;26.204;2023-04-24T02:27:04;13.98;;;6.20;;
10007;SDS011;5043;41.766;26.204;2023-04-24T02:29:30;8.70;;;5.45;;
10007;SDS011;5043;41.766;26.204;2023-04-24T02:31:56;11.07;;;5.50;;
10007;SDS011;5043;41.766;26.204;2023-04-24T02:34:21;8.68;;;6.05;;
10007;SDS011;5043;41.766;26.204;2023-04-24T02:36:48;9.80;;;6.25;;
10007;SDS011;5043;41.766;26.204;2023-04-24T02:39:13;10.18;;;5.88;;
10007;SDS011;5043;41.766;26.204;2023-04-24T02:41:41;8.80;;;5.57;;
10007;SDS011;5043;41.766;26.204;2023-04-24T02:44:07;9.25;;;5.85;;
10007;SDS011;5043;41.766;26.204;2023-04-24T02:46:32;12.15;;;5.68;;
10007;SDS011;5043;41.766;26.204;2023-04-24T02:48:58;8.80;;;5.82;;
10007;SDS011;5043;41.766;26.204;2023-04-24T02:51:23;13.02;;;5.75;;
10007;SDS011;5043;41.766;26.204;2023-04-24T02:53:48;13.77;;;5.50;;
10007;SDS011;5043;41.766;26.204;2023-04-24T02:56:14;13.68;;;6.10;;
10007;SDS011;5043;41.766;26.204;2023-04-24T02:58:39;10.43;;;6.28;;
10007;SDS011;5043;41.766;26.204;2023-04-24T03:01:05;12.93;;;5.35;;
10007;SDS011;5043;41.766;26.204;2023-04-24T03:03:30;14.10;;;5.38;;
10007;SDS011;5043;41.766;26.204;2023-04-24T03:05:56;10.52;;;5.40;;
10007;SDS011;5043;41.766;26.204;2023-04-24T03:08:22;7.50;;;5.30;;
10007;SDS011;5043;41.766;26.204;2023-04-24T03:10:48;9.32;;;5.40;;
10007;SDS011;5043;41.766;26.204;2023-04-24T03:13:13;12.60;;;6.07;;
10007;SDS011;5043;41.766;26.204;2023-04-24T03:15:39;16.90;;;5.72;;
10007;SDS011;5043;41.766;26.204;2023-04-24T03:18:04;10.95;;;5.55;;
10007;SDS011;5043;41.766;26.204;2023-04-24T03:20:30;12.23;;;5.07;;
10007;SDS011;5043;41.766;26.204;2023-04-24T03:22:55;12.55;;;6.07;;
10007;SDS011;5043;41.766;26.204;2023-04-24T03:25:22;10.13;;;6.30;;
10007;SDS011;5043;41.766;26.204;2023-04-24T03:27:47;9.18;;;7.00;;
10007;SDS011;5043;41.766;26.204;2023-04-24T03:30:12;14.23;;;7.53;;
10007;SDS011;5043;41.766;26.204;2023-04-24T03:32:38;11.82;;;6.70;;
10007;SDS011;5043;41.766;26.204;2023-04-24T03:35:04;11.30;;;7.07;;
10007;SDS011;5043;41.766;26.204;2023-04-24T03:37:32;10.57;;;7.43;;
10007;SDS011;5043;41.766;26.204;2023-04-24T03:39:57;10.63;;;6.35;;
10007;SDS011;5043;41.766;26.204;2023-04-24T03:42:23;17.85;;;6.32;;
10007;SDS011;5043;41.766;26.204;2023-04-24T03:44:48;10.23;;;5.95;;
10007;SDS011;5043;41.766;26.204;2023-04-24T03:47:13;12.18;;;6.13;;
10007;SDS011;5043;41.766;26.204;2023-04-24T03:49:39;8.30;;;4.78;;
10007;SDS011;5043;41.766;26.204;2023-04-24T03:52:04;10.57;;;5.90;;
10007;SDS011;5043;41.766;26.204;2023-04-24T03:54:30;10.93;;;5.20;;
10007;SDS011;5043;41.766;26.204;2023-04-24T03:56:55;6.95;;;5.28;;
10007;SDS011;5043;41.766;26.204;2023-04-24T03:59:20;12.35;;;5.65;;
10007;SDS011;5043;41.766;26.204;2023-04-24T04:01:46;12.25;;;5.93;;
10007;SDS011;5043;41.766;26.204;2023-04-24T04:04:11;10.85;;;5.15;;
10007;SDS011;5043;41.766;26.204;2023-04-24T04:06:37;13.73;;;5.90;;
10007;SDS011;5043;41.766;26.204;2023-04-24T04:09:03;10.90;;;5.63;;
10007;SDS011;5043;41.766;26.204;2023-04-24T04:11:28;14.30;;;6.18;;
10007;SDS011;5043;41.766;26.204;2023-04-24T04:13:54;8.27;;;5.20;;
10007;SDS011;5043;41.766;26.204;2023-04-24T04:16:20;9.25;;;5.50;;
10007;SDS011;5043;41.766;26.204;2023-04-24T04:18:45;11.25;;;5.65;;
10007;SDS011;5043;41.766;26.204;2023-04-24T04:21:11;15.02;;;6.18;;
10007;SDS011;5043;41.766;26.204;2023-04-24T04:23:36;7.00;;;5.03;;
10007;SDS011;5043;41.766;26.204;2023-04-24T04:26:02;7.65;;;5.10;;
10007;SDS011;5043;41.766;26.204;2023-04-24T04:28:29;21.38;;;6.03;;
10007;SDS011;5043;41.766;26.204;2023-04-24T04:30:56;8.70;;;5.72;;
10007;SDS011;5043;41.766;26.204;2023-04-24T04:33:22;11.38;;;6.75;;
10007;SDS011;5043;41.766;26.204;2023-04-24T04:35:48;10.13;;;6.82;;
10007;SDS011;5043;41.766;26.204;2023-04-24T04:38:15;12.38;;;7.05;;
10007;SDS011;5043;41.766;26.204;2023-04-24T04:40:42;12.35;;;5.57;;
10007;SDS011;5043;41.766;26.204;2023-04-24T04:43:08;16.30;;;6.53;;
10007;SDS011;5043;41.766;26.204;2023-04-24T04:45:33;14.68;;;6.88;;
10007;SDS011;5043;41.766;26.204;2023-04-24T04:47:59;12.38;;;6.13;;
10007;SDS011;5043;41.766;26.204;2023-04-24T04:50:26;14.77;;;6.35;;
10007;SDS011;5043;41.766;26.204;2023-04-24T04:52:52;11.05;;;5.22;;
10007;SDS011;5043;41.766;26.204;2023-04-24T04:55:17;11.88;;;5.93;;
10007;SDS011;5043;41.766;26.204;2023-04-24T04:57:45;11.82;;;6.40;;
10007;SDS011;5043;41.766;26.204;2023-04-24T05:00:10;12.70;;;7.43;;
10007;SDS011;5043;41.766;26.204;2023-04-24T05:02:36;13.55;;;6.63;;
10007;SDS011;5043;41.766;26.204;2023-04-24T05:05:05;11.35;;;6.18;;
10007;SDS011;5043;41.766;26.204;2023-04-24T05:07:31;9.52;;;5.93;;
10007;SDS011;5043;41.766;26.204;2023-04-24T05:09:56;9.95;;;6.85;;
10007;SDS011;5043;41.766;26.204;2023-04-24T05:12:22;15.15;;;7.47;;
10007;SDS011;5043;41.766;26.204;2023-04-24T05:14:47;9.57;;;6.60;;
10007;SDS011;5043;41.766;26.204;2023-04-24T05:17:13;12.88;;;6.45;;
10007;SDS011;5043;41.766;26.204;2023-04-24T05:19:38;11.57;;;6.80;;
10007;SDS011;5043;41.766;26.204;2023-04-24T05:22:04;12.80;;;7.45;;
10007;SDS011;5043;41.766;26.204;2023-04-24T05:24:32;18.60;;;7.72;;
10007;SDS011;5043;41.766;26.204;2023-04-24T05:26:58;11.07;;;7.40;;
10007;SDS011;5043;41.766;26.204;2023-04-24T05:29:24;13.02;;;7.72;;
10007;SDS011;5043;41.766;26.204;2023-04-24T05:31:50;12.73;;;7.72;;
10007;SDS011;5043;41.766;26.204;2023-04-24T05:34:15;14.15;;;7.38;;
10007;SDS011;5043;41.766;26.204;2023-04-24T05:36:41;13.98;;;7.40;;
10007;SDS011;5043;41.766;26.204;2023-04-24T05:39:07;10.13;;;7.22;;
10007;SDS011;5043;41.766;26.204;2023-04-24T05:41:33;13.48;;;7.53;;
10007;SDS011;5043;41.766;26.204;2023-04-24T05:43:59;15.48;;;7.57;;
10007;SDS011;5043;41.766;26.204;2023-04-24T05:46:24;11.07;;;7.47;;
10007;SDS011;5043;41.766;26.204;2023-04-24T05:48:50;13.13;;;6.88;;
10007;SDS011;5043;41.766;26.204;2023-04-24T05:51:15;11.30;;;7.15;;
10007;SDS011;5043;41.766;26.204;2023-04-24T05:53:41;8.50;;;7.07;;
10007;SDS011;5043;41.766;26.204;2023-04-24T05:56:06;15.32;;;7.63;;
10007;SDS011;5043;41.766;26.204;2023-04-24T05:58:32;12.45;;;6.80;;
10007;SDS011;5043;41.766;26.204;2023-04-24T06:00:57;11.40;;;7.25;;
10007;SDS011;5043;41.766;26.204;2023-04-24T06:03:24;11.82;;;7.15;;
10007;SDS011;5043;41.766;26.204;2023-04-24T06:05:50;14.25;;;7.28;;
10007;SDS011;5043;41.766;26.204;2023-04-24T06:08:16;9.88;;;6.68;;
10007;SDS011;5043;41.766;26.204;2023-04-24T06:10:41;12.23;;;7.05;;
10007;SDS011;5043;41.766;26.204;2023-04-24T06:13:07;10.50;;;7.18;;
10007;SDS011;5043;41.766;26.204;2023-04-24T06:15:33;14.93;;;6.35;;
10007;SDS011;5043;41.766;26.204;2023-04-24T06:17:58;12.98;;;6.97;;
10007;SDS011;5043;41.766;26.204;2023-04-24T06:20:24;10.68;;;6.57;;
10007;SDS011;5043;41.766;26.204;2023-04-24T06:22:50;12.15;;;7.07;;
10007;SDS011;5043;41.766;26.204;2023-04-24T06:25:15;11.35;;;6.57;;
10007;SDS011;5043;41.766;26.204;2023-04-24T06:27:41;8.73;;;6.85;;
10007;SDS011;5043;41.766;26.204;2023-04-24T06:30:06;12.15;;;6.68;;
10007;SDS011;5043;41.766;26.204;2023-04-24T06:32:32;12.05;;;7.18;;
10007;SDS011;5043;41.766;26.204;2023-04-24T06:34:58;10.35;;;6.43;;
10007;SDS011;5043;41.766;26.204;2023-04-24T06:37:23;9.93;;;6.18;;
10007;SDS011;5043;41.766;26.204;2023-04-24T06:39:49;8.65;;;6.68;;
10007;SDS011;5043;41.766;26.204;2023-04-24T06:42:14;9.25;;;5.57;;
10007;SDS011;5043;41.766;26.204;2023-04-24T06:44:40;10.15;;;6.07;;
10007;SDS011;5043;41.766;26.204;2023-04-24T06:47:11;12.05;;;5.90;;
10007;SDS011;5043;41.766;26.204;2023-04-24T06:49:38;10.45;;;6.50;;
10007;SDS011;5043;41.766;26.204;2023-04-24T06:52:04;11.20;;;5.60;;
10007;SDS011;5043;41.766;26.204;2023-04-24T06:54:30;12.48;;;6.47;;
10007;SDS011;5043;41.766;26.204;2023-04-24T06:56:56;11.55;;;6.20;;
10007;SDS011;5043;41.766;26.204;2023-04-24T06:59:23;12.30;;;6.15;;
10007;SDS011;5043;41.766;26.204;2023-04-24T07:01:49;9.60;;;5.80;;
10007;SDS011;5043;41.766;26.204;2023-04-24T07:04:16;9.35;;;5.53;;
10007;SDS011;5043;41.766;26.204;2023-04-24T07:06:42;12.23;;;5.65;;
10007;SDS011;5043;41.766;26.204;2023-04-24T07:09:07;8.38;;;5.07;;
10007;SDS011;5043;41.766;26.204;2023-04-24T07:11:34;9.80;;;5.53;;
10007;SDS011;5043;41.766;26.204;2023-04-24T07:14:00;9.15;;;5.95;;
10007;SDS011;5043;41.766;26.204;2023-04-24T07:16:25;7.22;;;5.53;;
10007;SDS011;5043;41.766;26.204;2023-04-24T07:18:51;10.23;;;5.82;;
10007;SDS011;5043;41.766;26.204;2023-04-24T07:21:17;12.50;;;5.90;;
10007;SDS011;5043;41.766;26.204;2023-04-24T07:23:42;11.93;;;5.57;;
10007;SDS011;5043;41.766;26.204;2023-04-24T07:26:08;11.57;;;5.57;;
10007;SDS011;5043;41.766;26.204;2023-04-24T07:28:34;13.48;;;5.30;;
10007;SDS011;5043;41.766;26.204;2023-04-24T07:31:00;7.78;;;5.20;;
10007;SDS011;5043;41.766;26.204;2023-04-24T07:33:25;13.05;;;5.03;;
10007;SDS011;5043;41.766;26.204;2023-04-24T07:35:51;8.88;;;5.65;;
10007;SDS011;5043;41.766;26.204;2023-04-24T07:38:17;8.55;;;5.07;;
10007;SDS011;5043;41.766;26.204;2023-04-24T07:40:46;7.47;;;4.90;;
10007;SDS011;5043;41.766;26.204;2023-04-24T07:43:11;10.57;;;5.03;;
10007;SDS011;5043;41.766;26.204;2023-04-24T07:45:37;9.18;;;5.30;;
10007;SDS011;5043;41.766;26.204;2023-04-24T07:48:03;8.30;;;4.72;;
10007;SDS011;5043;41.766;26.204;2023-04-24T07:50:29;9.05;;;5.22;;
10007;SDS011;5043;41.766;26.204;2023-04-24T07:52:55;8.20;;;4.88;;
10007;SDS011;5043;41.766;26.204;2023-04-24T07:55:20;10.50;;;5.18;;
10007;SDS011;5043;41.766;26.204;2023-04-24T07:57:46;11.52;;;5.38;;
10007;SDS011;5043;41.766;26.204;2023-04-24T08:00:11;13.80;;;6.22;;
10007;SDS011;5043;41.766;26.204;2023-04-24T08:02:37;8.20;;;4.95;;
10007;SDS011;5043;41.766;26.204;2023-04-24T08:05:03;6.97;;;4.75;;
10007;SDS011;5043;41.766;26.204;2023-04-24T08:07:28;8.82;;;5.13;;
10007;SDS011;5043;41.766;26.204;2023-04-24T08:09:54;9.73;;;5.43;;
10007;SDS011;5043;41.766;26.204;2023-04-24T08:12:19;8.18;;;5.18;;
10007;SDS011;5043;41.766;26.204;2023-04-24T08:14:45;8.77;;;5.15;;
10007;SDS011;5043;41.766;26.204;2023-04-24T08:17:10;5.93;;;5.20;;
10007;SDS011;5043;41.766;26.204;2023-04-24T08:19:36;6.07;;;4.75;;
10007;SDS011;5043;41.766;26.204;2023-04-24T08:22:01;9.88;;;5.28;;
10007;SDS011;5043;41.766;26.204;2023-04-24T08:24:29;8.43;;;4.47;;
10007;SDS011;5043;41.766;26.204;2023-04-24T08:26:54;9.73;;;5.07;;
10007;SDS011;5043;41.766;26.204;2023-04-24T08:29:21;11.18;;;5.22;;
10007;SDS011;5043;41.766;26.204;2023-04-24T08:31:47;6.10;;;4.63;;
10007;SDS011;5043;41.766;26.204;2023-04-24T08:34:12;11.38;;;4.93;;
10007;SDS011;5043;41.766;26.204;2023-04-24T08:36:39;8.63;;;4.68;;
10007;SDS011;5043;41.766;26.204;2023-04-24T08:39:05;6.50;;;4.70;;
10007;SDS011;5043;41.766;26.204;2023-04-24T08:41:31;7.65;;;4.43;;
10007;SDS011;5043;41.766;26.204;2023-04-24T08:43:59;9.65;;;5.15;;
10007;SDS011;5043;41.766;26.204;2023-04-24T08:46:27;11.15;;;5.25;;
10007;SDS011;5043;41.766;26.204;2023-04-24T08:48:55;9.05;;;4.35;;
10007;SDS011;5043;41.766;26.204;2023-04-24T08:51:21;11.20;;;5.22;;
10007;SDS011;5043;41.766;26.204;2023-04-24T08:53:47;9.88;;;4.88;;
10007;SDS011;5043;41.766;26.204;2023-04-24T08:56:13;7.68;;;4.38;;
10007;SDS011;5043;41.766;26.204;2023-04-24T08:58:39;13.73;;;5.40;;
10007;SDS011;5043;41.766;26.204;2023-04-24T09:01:05;10.65;;;5.22;;
10007;SDS011;5043;41.766;26.204;2023-04-24T09:03:32;11.43;;;5.28;;
10007;SDS011;5043;41.766;26.204;2023-04-24T09:05:59;8.55;;;5.38;;
10007;SDS011;5043;41.766;26.204;2023-04-24T09:08:25;10.77;;;5.70;;
10007;SDS011;5043;41.766;26.204;2023-04-24T09:10:53;10.00;;;4.65;;
10007;SDS011;5043;41.766;26.204;2023-04-24T09:13:18;16.15;;;5.22;;
10007;SDS011;5043;41.766;26.204;2023-04-24T09:15:45;9.50;;;5.78;;
10007;SDS011;5043;41.766;26.204;2023-04-24T09:18:10;9.52;;;5.43;;
10007;SDS011;5043;41.766;26.204;2023-04-24T09:20:56;8.32;;;5.60;;
10007;SDS011;5043;41.766;26.204;2023-04-24T09:23:29;6.03;;;4.97;;
10007;SDS011;5043;41.766;26.204;2023-04-24T09:25:56;16.15;;;4.90;;
10007;SDS011;5043;41.766;26.204;2023-04-24T09:28:38;8.25;;;5.43;;
10007;SDS011;5043;41.766;26.204;2023-04-24T09:31:05;9.93;;;5.28;;
10007;SDS011;5043;41.766;26.204;2023-04-24T09:33:32;15.07;;;5.50;;
10007;SDS011;5043;41.766;26.204;2023-04-24T09:35:57;13.23;;;5.72;;
10007;SDS011;5043;41.766;26.204;2023-04-24T09:38:30;8.63;;;5.13;;
10007;SDS011;5043;41.766;26.204;2023-04-24T09:41:00;7.07;;;5.38;;
10007;SDS011;5043;41.766;26.204;2023-04-24T09:43:28;7.53;;;5.45;;
10007;SDS011;5043;41.766;26.204;2023-04-24T09:45:55;9.27;;;5.43;;
10007;SDS011;5043;41.766;26.204;2023-04-24T09:48:32;7.63;;;5.28;;
10007;SDS011;5043;41.766;26.204;2023-04-24T09:51:00;6.13;;;4.50;;
10007;SDS011;5043;41.766;26.204;2023-04-24T09:53:27;9.73;;;4.50;;
10007;SDS011;5043;41.766;26.204;2023-04-24T09:55:53;8.77;;;4.60;;
10007;SDS011;5043;41.766;26.204;2023-04-24T09:58:25;7.25;;;4.93;;
10007;SDS011;5043;41.766;26.204;2023-04-24T10:00:54;6.28;;;4.60;;
10007;SDS011;5043;41.766;26.204;2023-04-24T10:03:25;8.63;;;4.60;;
10007;SDS011;5043;41.766;26.204;2023-04-24T10:05:52;6.57;;;4.65;;
10007;SDS011;5043;41.766;26.204;2023-04-24T10:08:19;8.30;;;4.22;;
10007;SDS011;5043;41.766;26.204;2023-04-24T10:10:45;7.88;;;4.40;;
10007;SDS011;5043;41.766;26.204;2023-04-24T10:13:12;6.93;;;3.72;;
10007;SDS011;5043;41.766;26.204;2023-04-24T10:15:40;9.85;;;4.55;;
10007;SDS011;5043;41.766;26.204;2023-04-24T10:18:07;7.68;;;3.90;;
10007;SDS011;5043;41.766;26.204;2023-04-24T10:20:35;7.38;;;4.57;;
10007;SDS011;5043;41.766;26.204;2023-04-24T10:23:02;4.63;;;3.47;;
10007;SDS011;5043;41.766;26.204;2023-04-24T10:25:29;6.05;;;4.10;;
10007;SDS011;5043;41.766;26.204;2023-04-24T10:27:57;7.95;;;4.20;;
10007;SDS011;5043;41.766;26.204;2023-04-24T10:30:28;9.73;;;4.63;;
10007;SDS011;5043;41.766;26.204;2023-04-24T10:33:03;4.43;;;3.40;;
10007;SDS011;5043;41.766;26.204;2023-04-24T10:35:40;8.00;;;3.55;;
10007;SDS011;5043;41.766;26.204;2023-04-24T10:38:11;6.38;;;2.80;;
10007;SDS011;5043;41.766;26.204;2023-04-24T10:40:38;10.38;;;3.50;;
10007;SDS011;5043;41.766;26.204;2023-04-24T10:43:04;6.75;;;3.67;;
10007;SDS011;5043;41.766;26.204;2023-04-24T10:45:33;4.75;;;2.95;;
10007;SDS011;5043;41.766;26.204;2023-04-24T10:47:59;6.07;;;3.47;;
10007;SDS011;5043;41.766;26.204;2023-04-24T10:50:42;12.50;;;3.88;;
10007;SDS011;5043;41.766;26.204;2023-04-24T10:53:16;5.35;;;3.75;;
10007;SDS011;5043;41.766;26.204;2023-04-24T10:55:49;4.78;;;3.53;;
10007;SDS011;5043;41.766;26.204;2023-04-24T10:58:44;10.70;;;3.35;;
10007;SDS011;5043;41.766;26.204;2023-04-24T11:03:59;3.85;;;3.35;;
10007;SDS011;5043;41.766;26.204;2023-04-24T11:06:31;5.20;;;3.17;;
10007;SDS011;5043;41.766;26.204;2023-04-24T11:09:10;5.88;;;3.28;;
10007;SDS011;5043;41.766;26.204;2023-04-24T11:11:44;4.60;;;2.58;;
10007;SDS011;5043;41.766;26.204;2023-04-24T11:14:13;3.85;;;2.78;;
10007;SDS011;5043;41.766;26.204;2023-04-24T11:16:52;5.30;;;2.65;;
10007;SDS011;5043;41.766;26.204;2023-04-24T11:19:26;4.70;;;3.08;;
10007;SDS011;5043;41.766;26.204;2023-04-24T11:22:03;4.18;;;2.80;;
10007;SDS011;5043;41.766;26.204;2023-04-24T11:34:57;7.82;;;2.28;;
10007;SDS011;5043;41.766;26.204;2023-04-24T11:37:30;6.57;;;3.00;;
10007;SDS011;5043;41.766;26.204;2023-04-24T11:40:00;4.95;;;2.65;;
10007;SDS011;5043;41.766;26.204;2023-04-24T11:42:25;3.33;;;2.30;;
10007;SDS011;5043;41.766;26.204;2023-04-24T11:44:54;5.80;;;2.70;;
10007;SDS011;5043;41.766;26.204;2023-04-24T11:47:27;8.75;;;2.78;;
10007;SDS011;5043;41.766;26.204;2023-04-24T11:49:56;6.78;;;2.78;;
10007;SDS011;5043;41.766;26.204;2023-04-24T11:52:22;9.00;;;3.05;;
10007;SDS011;5043;41.766;26.204;2023-04-24T11:54:51;9.57;;;2.83;;
10007;SDS011;5043;41.766;26.204;2023-04-24T11:57:19;5.70;;;2.42;;
10007;SDS011;5043;41.766;26.204;2023-04-24T11:59:46;4.68;;;2.20;;
10007;SDS011;5043;41.766;26.204;2023-04-24T12:02:30;6.82;;;2.55;;
10007;SDS011;5043;41.766;26.204;2023-04-24T12:04:56;6.22;;;2.47;;
10007;SDS011;5043;41.766;26.204;2023-04-24T12:07:22;4.80;;;2.53;;
10007;SDS011;5043;41.766;26.204;2023-04-24T12:09:49;7.43;;;2.25;;
10007;SDS011;5043;41.766;26.204;2023-04-24T12:12:20;9.00;;;2.05;;
10007;SDS011;5043;41.766;26.204;2023-04-24T12:14:54;4.78;;;2.38;;
10007;SDS011;5043;41.766;26.204;2023-04-24T12:17:29;5.28;;;2.42;;
10007;SDS011;5043;41.766;26.204;2023-04-24T12:20:00;4.35;;;2.47;;
10007;SDS011;5043;41.766;26.204;2023-04-24T12:22:28;17.25;;;2.42;;
10007;SDS011;5043;41.766;26.204;2023-04-24T12:25:19;7.55;;;2.45;;
10007;SDS011;5043;41.766;26.204;2023-04-24T12:27:46;4.10;;;2.13;;
10007;SDS011;5043;41.766;26.204;2023-04-24T12:30:18;3.78;;;2.47;;
10007;SDS011;5043;41.766;26.204;2023-04-24T12:32:47;5.82;;;2.55;;
10007;SDS011;5043;41.766;26.204;2023-04-24T12:35:23;3.83;;;2.47;;
10007;SDS011;5043;41.766;26.204;2023-04-24T12:37:50;5.20;;;2.33;;
10007;SDS011;5043;41.766;26.204;2023-04-24T12:40:16;7.07;;;2.28;;
10007;SDS011;5043;41.766;26.204;2023-04-24T12:42:46;4.75;;;2.15;;
10007;SDS011;5043;41.766;26.204;2023-04-24T12:45:13;4.35;;;2.72;;
10007;SDS011;5043;41.766;26.204;2023-04-24T12:47:40;5.82;;;2.35;;
10007;SDS011;5043;41.766;26.204;2023-04-24T12:50:08;4.25;;;2.45;;
10007;SDS011;5043;41.766;26.204;2023-04-24T12:52:35;6.15;;;2.40;;
10007;SDS011;5043;41.766;26.204;2023-04-24T12:55:01;3.95;;;2.63;;
10007;SDS011;5043;41.766;26.204;2023-04-24T12:57:27;5.00;;;3.17;;
10007;SDS011;5043;41.766;26.204;2023-04-24T12:59:54;4.07;;;2.78;;
10007;SDS011;5043;41.766;26.204;2023-04-24T13:02:27;4.63;;;3.00;;
10007;SDS011;5043;41.766;26.204;2023-04-24T13:04:56;6.88;;;2.10;;
10007;SDS011;5043;41.766;26.204;2023-04-24T13:07:22;8.50;;;4.55;;
10007;SDS011;5043;41.766;26.204;2023-04-24T13:09:48;3.08;;;2.15;;
10007;SDS011;5043;41.766;26.204;2023-04-24T13:12:14;9.77;;;2.75;;
10007;SDS011;5043;41.766;26.204;2023-04-24T13:14:40;9.38;;;2.60;;
10007;SDS011;5043;41.766;26.204;2023-04-24T13:17:06;4.03;;;2.25;;
10007;SDS011;5043;41.766;26.204;2023-04-24T13:19:36;4.03;;;2.78;;
10007;SDS011;5043;41.766;26.204;2023-04-24T13:22:03;5.70;;;2.88;;
10007;SDS011;5043;41.766;26.204;2023-04-24T13:24:29;7.15;;;2.85;;
10007;SDS011;5043;41.766;26.204;2023-04-24T13:26:56;3.58;;;2.50;;
10007;SDS011;5043;41.766;26.204;2023-04-24T13:29:22;6.65;;;3.05;;
10007;SDS011;5043;41.766;26.204;2023-04-24T13:31:49;7.65;;;3.25;;
10007;SDS011;5043;41.766;26.204;2023-04-24T13:34:16;5.75;;;2.60;;
10007;SDS011;5043;41.766;26.204;2023-04-24T13:36:42;8.77;;;3.10;;
10007;SDS011;5043;41.766;26.204;2023-04-24T13:39:08;5.53;;;2.15;;
10007;SDS011;5043;41.766;26.204;2023-04-24T13:41:34;4.70;;;2.65;;
10007;SDS011;5043;41.766;26.204;2023-04-24T13:44:01;5.97;;;2.42;;
10007;SDS011;5043;41.766;26.204;2023-04-24T13:46:26;3.97;;;2.58;;
10007;SDS011;5043;41.766;26.204;2023-04-24T13:48:52;6.57;;;2.88;;
10007;SDS011;5043;41.766;26.204;2023-04-24T13:51:17;6.95;;;2.83;;
10007;SDS011;5043;41.766;26.204;2023-04-24T13:53:43;5.57;;;2.78;;
10007;SDS011;5043;41.766;26.204;2023-04-24T13:56:08;5.88;;;3.17;;
10007;SDS011;5043;41.766;26.204;2023-04-24T13:58:34;3.00;;;2.38;;
10007;SDS011;5043;41.766;26.204;2023-04-24T14:01:02;5.72;;;2.60;;
10007;SDS011;5043;41.766;26.204;2023-04-24T14:03:28;7.78;;;2.58;;
10007;SDS011;5043;41.766;26.204;2023-04-24T14:05:53;8.75;;;2.97;;
10007;SDS011;5043;41.766;26.204;2023-04-24T14:08:19;7.38;;;3.13;;
10007;SDS011;5043;41.766;26.204;2023-04-24T14:10:44;4.28;;;2.88;;
10007;SDS011;5043;41.766;26.204;2023-04-24T14:13:10;16.65;;;5.95;;
10007;SDS011;5043;41.766;26.204;2023-04-24T14:15:36;7.97;;;3.55;;
10007;SDS011;5043;41.766;26.204;2023-04-24T14:18:02;10.15;;;3.63;;
10007;SDS011;5043;41.766;26.204;2023-04-24T14:20:28;5.93;;;3.20;;
10007;SDS011;5043;41.766;26.204;2023-04-24T14:22:53;6.30;;;3.15;;
10007;SDS011;5043;41.766;26.204;2023-04-24T14:25:19;5.55;;;3.10;;
10007;SDS011;5043;41.766;26.204;2023-04-24T14:27:44;3.58;;;3.00;;
10007;SDS011;5043;41.766;26.204;2023-04-24T14:30:10;5.35;;;3.38;;
10007;SDS011;5043;41.766;26.204;2023-04-24T14:32:38;7.03;;;3.50;;
10007;SDS011;5043;41.766;26.204;2023-04-24T14:35:05;8.80;;;3.75;;
10007;SDS011;5043;41.766;26.204;2023-04-24T14:37:31;13.25;;;7.75;;
10007;SDS011;5043;41.766;26.204;2023-04-24T14:39:57;10.05;;;3.85;;
10007;SDS011;5043;41.766;26.204;2023-04-24T14:42:22;5.82;;;4.03;;
10007;SDS011;5043;41.766;26.204;2023-04-24T14:44:49;5.38;;;3.58;;
10007;SDS011;5043;41.766;26.204;2023-04-24T14:47:15;4.13;;;2.95;;
10007;SDS011;5043;41.766;26.204;2023-04-24T14:49:42;4.75;;;3.20;;
10007;SDS011;5043;41.766;26.204;2023-04-24T14:52:08;4.38;;;3.40;;
10007;SDS011;5043;41.766;26.204;2023-04-24T14:54:34;3.58;;;2.92;;